Time;durP1;ratioP1;P1;durP2;ratioP2;P2;SDS_P1;SDS_P2;PMS_P1;PMS_P2;Temp;Humidity;BMP_temperature;BMP_pressure;BME280_temperature;BME280_humidity;BME280_pressure;Samples;Min_cycle;Max_cycle;Signal;HPM_P1;HPM_P2
2020/12/03 00:02:02;;;;;;;;;;;;;;;-0.91;72.61;94782.25;5013470;28;19918;-72
2020/12/03 00:04:27;;;;;;;;;;;;;;;-0.97;73.32;94793.66;5031808;28;19924;-74
2020/12/03 00:06:54;;;;;;;;;;;;;;;-1.17;74.95;94790.75;5031796;28;19921;-73
2020/12/03 00:09:21;;;;;;;;;;;;;;;-1.34;74.50;94798.56;5013852;28;19963;-72
2020/12/03 00:11:52;;;;;;;;;;;;;;;-1.80;77.08;94797.03;5031724;28;20011;-72
2020/12/03 00:14:18;;;;;;;;;;;;;;;-1.79;77.32;94799.44;5031684;28;20003;-72
2020/12/03 00:16:44;;;;;;;;;;;;;;;-1.65;76.51;94799.91;5014068;28;20010;-72
2020/12/03 00:19:10;;;;;;;;;;;;;;;-1.71;77.40;94799.03;5013709;28;20462;-73
2020/12/03 00:21:40;;;;;;;;;;;;;;;-1.48;76.85;94798.13;5030562;28;19944;-72
2020/12/03 00:24:06;;;;;;;;;;;;;;;-1.37;75.61;94799.06;5013929;28;20255;-73
2020/12/03 00:26:31;;;;;;;;;;;;;;;-1.25;76.06;94796.38;5014164;28;19924;-72
2020/12/03 00:28:56;;;;;;;;;;;;;;;-1.26;75.52;94795.56;5013711;28;19918;-73
2020/12/03 00:31:21;;;;;;;;;;;;;;;-1.38;75.60;94800.09;5030199;28;19921;-73
2020/12/03 00:33:47;;;;;;;;;;;;;;;-1.47;76.56;94804.13;5031052;28;20378;-73
2020/12/03 00:36:12;;;;;;;;;;;;;;;-1.12;75.22;94799.44;5031519;28;19964;-72
2020/12/03 00:38:37;;;;;;;;;;;;;;;-1.03;74.70;94786.75;5031246;28;19952;-73
2020/12/03 00:41:02;;;;;;;;;;;;;;;-1.48;75.44;94792.13;5031300;28;19921;-73
2020/12/03 00:43:28;;;;;;;;;;;;;;;-1.71;76.61;94791.22;5030932;28;19924;-71
2020/12/03 00:45:53;;;;;;;;;;;;;;;-1.71;77.19;94783.38;5013675;28;20363;-72
2020/12/03 00:48:19;;;;;;;;;;;;;;;-1.80;77.65;94776.19;5031059;28;19921;-73
2020/12/03 00:50:44;;;;;;;;;;;;;;;-1.48;77.33;94769.41;5013479;28;19983;-73
2020/12/03 00:53:10;;;;;;;;;;;;;;;-1.02;75.49;94771.88;5013215;28;19921;-73
2020/12/03 00:55:35;;;;;;;;;;;;;;;-0.89;74.43;94782.00;5031259;28;19917;-72
2020/12/03 00:58:01;;;;;;;;;;;;;;;-1.52;76.03;94783.16;5031150;28;19917;-72
2020/12/03 01:00:26;;;;;;;;;;;;;;;-1.60;77.35;94787.72;5013132;28;19917;-73
2020/12/03 01:02:51;;;;;;;;;;;;;;;-1.53;77.79;94785.00;5030195;28;19947;-73
2020/12/03 01:05:17;;;;;;;;;;;;;;;-1.00;75.59;94778.47;5031055;28;19971;-73
2020/12/03 01:07:42;;;;;;;;;;;;;;;-1.26;76.66;94792.97;5013388;28;20016;-72
2020/12/03 01:10:12;;;;;;;;;;;;;;;-0.88;76.50;94784.38;5013397;28;19917;-73
2020/12/03 01:12:37;;;;;;;;;;;;;;;-0.71;74.64;94784.34;5031750;28;20386;-73
2020/12/03 01:15:03;;;;;;;;;;;;;;;-1.00;76.76;94785.50;5032111;28;19917;-74
2020/12/03 01:17:29;;;;;;;;;;;;;;;-1.07;76.99;94786.47;5032038;28;19917;-74
2020/12/03 01:19:54;;;;;;;;;;;;;;;-0.75;76.09;94785.84;5014147;28;19925;-73
2020/12/03 01:22:19;;;;;;;;;;;;;;;-1.41;76.94;94788.31;5031861;28;19917;-73
2020/12/03 01:24:44;;;;;;;;;;;;;;;-0.94;76.34;94777.50;5014365;28;19917;-73
2020/12/03 01:27:10;;;;;;;;;;;;;;;-0.96;76.13;94779.56;5031991;28;19917;-72
2020/12/03 01:29:36;;;;;;;;;;;;;;;-1.19;77.50;94771.91;5031761;28;19936;-75
2020/12/03 01:32:04;;;;;;;;;;;;;;;-1.36;77.56;94769.34;5014833;28;19928;-72
2020/12/03 01:34:29;;;;;;;;;;;;;;;-1.42;78.53;94762.47;5018087;28;19917;-73
2020/12/03 01:36:55;;;;;;;;;;;;;;;-1.66;79.28;94767.03;5017947;28;19974;-73
2020/12/03 01:39:20;;;;;;;;;;;;;;;-1.65;79.97;94758.97;5017793;28;19967;-72
2020/12/03 01:41:46;;;;;;;;;;;;;;;-1.35;78.58;94773.50;5035499;28;19917;-73
2020/12/03 01:44:11;;;;;;;;;;;;;;;-1.59;79.56;94762.44;5017798;28;19921;-73
2020/12/03 01:46:37;;;;;;;;;;;;;;;-1.84;79.66;94762.84;5017850;28;20374;-73
2020/12/03 01:49:24;;;;;;;;;;;;;;;-1.23;78.49;94755.94;5035321;28;19917;-73
2020/12/03 01:51:53;;;;;;;;;;;;;;;-1.89;80.55;94762.75;5017738;28;19917;-72
2020/12/03 01:54:22;;;;;;;;;;;;;;;-1.34;79.00;94759.44;5017527;28;19917;-73
2020/12/03 01:57:06;;;;;;;;;;;;;;;-0.77;76.55;94753.94;5035373;28;19917;-72
2020/12/03 01:59:39;;;;;;;;;;;;;;;-1.12;76.11;94752.47;5017245;28;19960;-73
2020/12/03 02:02:06;;;;;;;;;;;;;;;-0.97;75.50;94758.91;5016716;28;19971;-72
2020/12/03 02:04:32;;;;;;;;;;;;;;;-1.24;76.40;94761.41;5017553;28;19921;-72
2020/12/03 02:06:59;;;;;;;;;;;;;;;-1.14;75.58;94749.28;5017549;28;20008;-73
2020/12/03 02:09:24;;;;;;;;;;;;;;;-1.17;74.96;94739.34;5017307;28;20013;-72
2020/12/03 02:11:49;;;;;;;;;;;;;;;-1.68;77.34;94749.03;5017224;28;19968;-72
2020/12/03 02:14:15;;;;;;;;;;;;;;;-1.49;77.38;94739.13;5035011;28;19917;-73
2020/12/03 02:16:41;;;;;;;;;;;;;;;-1.29;75.71;94740.47;5017307;28;19924;-72
2020/12/03 02:19:21;;;;;;;;;;;;;;;-1.15;75.52;94734.66;5017040;28;19918;-72
2020/12/03 02:21:59;;;;;;;;;;;;;;;-1.49;75.61;94741.72;5016827;28;19917;-72
2020/12/03 02:24:25;;;;;;;;;;;;;;;-1.42;76.30;94733.75;5017179;28;19921;-72
2020/12/03 02:26:50;;;;;;;;;;;;;;;-0.70;74.29;94736.28;5017220;28;19926;-73
2020/12/03 02:29:17;;;;;;;;;;;;;;;-0.51;72.93;94726.34;5016752;28;20299;-72
2020/12/03 02:31:42;;;;;;;;;;;;;;;-0.24;71.97;94720.34;5016304;28;19949;-72
2020/12/03 02:34:07;;;;;;;;;;;;;;;0.02;71.09;94724.78;5034427;28;20456;-72
2020/12/03 02:36:32;;;;;;;;;;;;;;;0.21;69.90;94722.59;5034511;28;19925;-73
2020/12/03 02:38:58;;;;;;;;;;;;;;;-0.57;71.81;94717.63;5034434;28;19963;-73
2020/12/03 02:41:23;;;;;;;;;;;;;;;-0.75;71.27;94725.78;5034422;28;20283;-73
2020/12/03 02:43:48;;;;;;;;;;;;;;;-0.91;72.59;94719.59;5033335;28;20544;-71
2020/12/03 02:46:13;;;;;;;;;;;;;;;-1.07;73.67;94708.16;5034503;28;20298;-73
2020/12/03 02:48:38;;;;;;;;;;;;;;;-0.84;73.68;94722.00;5016629;28;20355;-73
2020/12/03 02:51:04;;;;;;;;;;;;;;;-0.73;72.95;94713.25;5016648;28;20379;-73
2020/12/03 02:53:29;;;;;;;;;;;;;;;-0.53;72.30;94715.31;5034079;28;19972;-73
2020/12/03 02:55:54;;;;;;;;;;;;;;;-0.37;71.26;94717.06;5016787;28;19920;-73
2020/12/03 02:58:19;;;;;;;;;;;;;;;-0.12;71.33;94708.69;5033913;28;19917;-73
2020/12/03 03:00:44;;;;;;;;;;;;;;;-0.31;70.56;94718.72;5034339;28;20004;-72
2020/12/03 03:03:10;;;;;;;;;;;;;;;-0.02;70.39;94713.22;5033246;28;19963;-73
2020/12/03 03:05:35;;;;;;;;;;;;;;;0.51;69.71;94711.56;5034166;28;19917;-73
2020/12/03 03:08:00;;;;;;;;;;;;;;;0.68;68.81;94714.84;5034103;28;19921;-73
2020/12/03 03:10:25;;;;;;;;;;;;;;;0.91;68.68;94707.63;5033722;28;19921;-73
2020/12/03 03:12:51;;;;;;;;;;;;;;;1.14;68.13;94693.34;5015975;28;20032;-73
2020/12/03 03:15:17;;;;;;;;;;;;;;;1.29;67.68;94685.56;5033924;28;20454;-73
2020/12/03 03:17:42;;;;;;;;;;;;;;;1.39;66.65;94675.13;5033803;28;20349;-73
2020/12/03 03:20:08;;;;;;;;;;;;;;;1.49;66.67;94682.22;5015761;28;19918;-73
2020/12/03 03:22:33;;;;;;;;;;;;;;;1.61;66.58;94677.53;5033410;28;19965;-73
2020/12/03 03:24:58;;;;;;;;;;;;;;;1.69;66.10;94674.41;5015923;28;20026;-73
2020/12/03 03:27:23;;;;;;;;;;;;;;;1.75;66.19;94672.59;5015905;28;19913;-73
2020/12/03 03:29:48;;;;;;;;;;;;;;;1.80;65.67;94669.97;5033047;28;20317;-73
2020/12/03 03:32:14;;;;;;;;;;;;;;;1.84;65.09;94660.50;5031742;28;19913;-73
2020/12/03 03:34:39;;;;;;;;;;;;;;;1.88;65.39;94652.91;5033286;28;19940;-73
2020/12/03 03:37:04;;;;;;;;;;;;;;;1.86;64.52;94647.16;5033536;28;19928;-73
2020/12/03 03:39:29;;;;;;;;;;;;;;;1.87;64.67;94656.59;5033267;28;19920;-73
2020/12/03 03:41:56;;;;;;;;;;;;;;;1.85;64.62;94659.50;5015419;28;19924;-73
2020/12/03 03:44:22;;;;;;;;;;;;;;;1.90;65.14;94664.75;5033161;28;19917;-74
2020/12/03 03:46:47;;;;;;;;;;;;;;;1.94;64.75;94660.53;5015527;28;19924;-73
2020/12/03 03:49:12;;;;;;;;;;;;;;;1.98;64.68;94653.72;5033132;28;20008;-74
2020/12/03 03:51:38;;;;;;;;;;;;;;;2.03;64.88;94660.81;5032984;28;19917;-73
2020/12/03 03:54:03;;;;;;;;;;;;;;;2.06;63.83;94655.81;5033069;28;19963;-73
2020/12/03 03:56:28;;;;;;;;;;;;;;;2.09;64.53;94655.28;5032927;28;19924;-73
2020/12/03 03:58:54;;;;;;;;;;;;;;;2.09;63.95;94631.69;5032835;28;19964;-73
2020/12/03 04:01:19;;;;;;;;;;;;;;;2.07;63.50;94622.50;5015056;28;20011;-73
2020/12/03 04:03:44;;;;;;;;;;;;;;;1.98;63.95;94619.63;5032601;28;19917;-74
2020/12/03 04:06:09;;;;;;;;;;;;;;;1.99;64.10;94615.16;5032957;28;19921;-73
2020/12/03 04:08:35;;;;;;;;;;;;;;;2.00;64.69;94606.25;5032668;28;19921;-73
2020/12/03 04:11:00;;;;;;;;;;;;;;;2.03;64.57;94617.00;5015213;28;19917;-72
2020/12/03 04:13:26;;;;;;;;;;;;;;;2.04;64.06;94605.44;5032547;28;20004;-73
2020/12/03 04:15:52;;;;;;;;;;;;;;;2.06;63.92;94605.97;5032898;28;20390;-73
2020/12/03 04:18:17;;;;;;;;;;;;;;;2.08;64.28;94611.75;5014875;28;19970;-73
2020/12/03 04:20:43;;;;;;;;;;;;;;;2.09;64.02;94600.19;5014954;28;20345;-72
2020/12/03 04:23:10;;;;;;;;;;;;;;;2.12;63.81;94604.13;5031707;28;22151;-73
2020/12/03 04:25:35;;;;;;;;;;;;;;;2.13;63.82;94608.34;5032774;28;20295;-73
2020/12/03 04:28:00;;;;;;;;;;;;;;;2.15;63.98;94605.44;5015067;28;20272;-74
2020/12/03 04:30:26;;;;;;;;;;;;;;;2.15;64.22;94614.13;5014645;28;19917;-72
2020/12/03 04:32:51;;;;;;;;;;;;;;;2.16;63.79;94599.16;5014328;28;19960;-72
2020/12/03 04:35:17;;;;;;;;;;;;;;;2.16;63.84;94604.41;5032503;28;19924;-72
2020/12/03 04:37:43;;;;;;;;;;;;;;;2.13;64.14;94603.09;5014832;28;19967;-71
2020/12/03 04:40:18;;;;;;;;;;;;;;;2.17;63.85;94609.38;5032320;28;19921;-73
2020/12/03 04:42:43;;;;;;;;;;;;;;;2.17;64.10;94588.41;5014369;28;19924;-73
2020/12/03 04:45:24;;;;;;;;;;;;;;;2.20;63.76;94589.69;5032368;28;19917;-71
2020/12/03 04:48:09;;;;;;;;;;;;;;;2.14;63.83;94591.53;5032316;28;20318;-73
2020/12/03 04:50:34;;;;;;;;;;;;;;;2.15;63.73;94587.88;5033039;28;19917;-75
2020/12/03 04:53:19;;;;;;;;;;;;;;;2.15;64.03;94582.63;5014783;28;19924;-75
2020/12/03 04:55:53;;;;;;;;;;;;;;;2.11;63.44;94584.22;5053978;23;19935;-72
2020/12/03 04:58:37;;;;;;;;;;;;;;;1.86;63.83;94573.72;5034374;28;20003;-73
2020/12/03 05:01:21;;;;;;;;;;;;;;;1.86;64.32;94574.50;5034152;28;19999;-77
2020/12/03 05:04:01;;;;;;;;;;;;;;;1.82;64.23;94576.09;5032096;28;20002;-73
2020/12/03 05:06:38;;;;;;;;;;;;;;;1.83;64.51;94569.78;5015343;28;20290;-75
2020/12/03 05:09:10;;;;;;;;;;;;;;;1.83;64.52;94564.53;5018742;28;19921;-66
2020/12/03 05:11:44;;;;;;;;;;;;;;;1.83;64.48;94572.41;5036086;28;19924;-69
2020/12/03 05:14:13;;;;;;;;;;;;;;;1.84;64.67;94566.09;5036792;28;19917;-83
2020/12/03 05:16:52;;;;;;;;;;;;;;;1.85;64.77;94557.22;5036668;28;19960;-71
2020/12/03 05:19:27;;;;;;;;;;;;;;;1.85;64.60;94562.47;5035959;28;19925;-71
2020/12/03 05:21:53;;;;;;;;;;;;;;;1.83;65.04;94549.59;5035882;28;19917;-70
2020/12/03 05:24:18;;;;;;;;;;;;;;;1.81;64.95;94550.91;5018208;28;20020;-70
2020/12/03 05:26:43;;;;;;;;;;;;;;;1.67;64.46;94557.72;5036243;28;20358;-80
2020/12/03 05:29:09;;;;;;;;;;;;;;;1.64;64.90;94566.09;5017970;28;20386;-67
2020/12/03 05:31:42;;;;;;;;;;;;;;;1.70;65.44;94571.09;5035287;28;19921;-67
2020/12/03 05:34:21;;;;;;;;;;;;;;;1.77;65.08;94576.09;5035585;28;20378;-67
2020/12/03 05:36:46;;;;;;;;;;;;;;;1.82;65.29;94586.56;5035711;28;19917;-67
2020/12/03 05:39:15;;;;;;;;;;;;;;;1.84;64.78;94592.31;5017675;28;20334;-67
2020/12/03 05:41:51;;;;;;;;;;;;;;;1.88;64.92;94577.66;5035383;28;19924;-67
2020/12/03 05:44:21;;;;;;;;;;;;;;;1.94;64.90;94571.34;5035516;28;19917;-68
2020/12/03 05:46:47;;;;;;;;;;;;;;;1.97;65.08;94554.31;5035688;28;20290;-66
2020/12/03 05:49:17;;;;;;;;;;;;;;;1.97;64.20;94557.72;5035074;28;19917;-67
2020/12/03 05:51:42;;;;;;;;;;;;;;;1.98;64.32;94555.88;5034963;28;19959;-66
2020/12/03 05:54:09;;;;;;;;;;;;;;;1.96;64.81;94553.53;5035225;28;19956;-66
2020/12/03 05:56:34;;;;;;;;;;;;;;;1.94;64.40;94546.97;5035077;28;19964;-66
2020/12/03 05:59:13;;;;;;;;;;;;;;;1.92;64.44;94551.69;5017319;28;19917;-66
2020/12/03 06:01:44;;;;;;;;;;;;;;;1.85;64.54;94556.44;5034419;28;20322;-67
2020/12/03 06:04:09;;;;;;;;;;;;;;;1.76;64.70;94558.78;5034976;28;19979;-66
2020/12/03 06:06:53;;;;;;;;;;;;;;;1.71;65.10;94559.56;5017305;28;20359;-66
2020/12/03 06:09:36;;;;;;;;;;;;;;;1.63;64.81;94564.53;5034733;28;19924;-66
2020/12/03 06:12:08;;;;;;;;;;;;;;;1.55;65.36;94568.47;5034677;28;19943;-66
2020/12/03 06:14:57;;;;;;;;;;;;;;;1.48;65.19;94573.16;5035065;28;19924;-66
2020/12/03 06:17:35;;;;;;;;;;;;;;;1.39;65.39;94572.91;5033204;28;20476;-66
2020/12/03 06:20:32;;;;;;;;;;;;;;;1.34;65.61;94566.88;5034522;28;20326;-66
2020/12/03 06:23:13;;;;;;;;;;;;;;;1.30;65.96;94570.00;4973782;28;19921;-66
2020/12/03 06:25:41;;;;;;;;;;;;;;;1.27;65.96;94567.09;5034654;28;19918;-66
2020/12/03 06:28:19;;;;;;;;;;;;;;;1.20;65.95;94559.50;5034627;28;19923;-66
2020/12/03 06:30:46;;;;;;;;;;;;;;;1.13;66.54;94558.19;5034714;28;19971;-66
2020/12/03 06:33:14;;;;;;;;;;;;;;;1.03;66.60;94553.72;5033763;28;19933;-66
2020/12/03 06:35:45;;;;;;;;;;;;;;;0.97;66.96;94557.34;5034438;28;20003;-66
2020/12/03 06:38:20;;;;;;;;;;;;;;;0.92;67.22;94555.53;5034372;28;19943;-67
2020/12/03 06:40:53;;;;;;;;;;;;;;;0.87;67.29;94573.00;5034549;28;19917;-66
2020/12/03 06:43:28;;;;;;;;;;;;;;;0.86;67.68;94569.63;5034377;28;19917;-66
2020/12/03 06:46:03;;;;;;;;;;;;;;;0.88;67.81;94566.75;5034196;28;19983;-65
2020/12/03 06:48:37;;;;;;;;;;;;;;;0.88;68.04;94578.03;5034140;28;20015;-66
2020/12/03 06:51:12;;;;;;;;;;;;;;;0.92;68.05;94583.50;5034229;28;20333;-66
2020/12/03 06:53:55;;;;;;;;;;;;;;;0.87;68.34;94584.31;5033654;28;19944;-66
2020/12/03 06:56:39;;;;;;;;;;;;;;;0.92;68.47;94583.50;5033817;28;19924;-63
2020/12/03 06:59:25;;;;;;;;;;;;;;;0.94;68.32;94577.00;5015934;28;19925;-75
2020/12/03 07:01:56;;;;;;;;;;;;;;;0.99;68.42;94579.63;5031908;28;20271;-66
2020/12/03 07:04:22;;;;;;;;;;;;;;;1.06;68.12;94575.97;5033881;28;20358;-65
2020/12/03 07:07:07;;;;;;;;;;;;;;;1.12;68.11;94574.94;5016188;28;20008;-79
2020/12/03 07:09:54;;;;;;;;;;;;;;;1.12;67.35;94565.25;5016278;28;20304;-78
2020/12/03 07:12:19;;;;;;;;;;;;;;;1.12;67.60;94567.06;5016080;28;20366;-73
2020/12/03 07:14:47;;;;;;;;;;;;;;;1.12;67.89;94560.00;5033827;28;19921;-63
2020/12/03 07:17:39;;;;;;;;;;;;;;;1.16;67.81;94566.31;5033691;28;19917;-69
2020/12/03 07:20:10;;;;;;;;;;;;;;;1.25;67.98;94563.97;5033471;28;19921;-66
2020/12/03 07:22:37;;;;;;;;;;;;;;;1.33;67.87;94562.66;5033444;28;19917;-62
2020/12/03 07:25:05;;;;;;;;;;;;;;;1.36;67.44;94552.47;5032331;28;19917;-71
2020/12/03 07:27:30;;;;;;;;;;;;;;;1.39;67.20;94551.94;5015762;28;20573;-65
2020/12/03 07:29:58;;;;;;;;;;;;;;;1.39;67.09;94554.56;5032875;28;19917;-69
2020/12/03 07:32:23;;;;;;;;;;;;;;;1.39;67.14;94551.16;5033358;28;19921;-72
2020/12/03 07:34:54;;;;;;;;;;;;;;;1.36;66.88;94557.69;5033957;28;19924;-80
2020/12/03 07:37:38;;;;;;;;;;;;;;;1.38;66.97;94560.84;5033454;28;19956;-65
2020/12/03 07:40:04;;;;;;;;;;;;;;;1.43;66.80;94571.31;5015193;28;20028;-65
2020/12/03 07:42:29;;;;;;;;;;;;;;;1.47;67.37;94568.97;5031770;28;19984;-62
2020/12/03 07:44:54;;;;;;;;;;;;;;;1.52;67.11;94569.78;5033542;28;19929;-75
2020/12/03 07:47:22;;;;;;;;;;;;;;;1.60;66.97;94565.06;5033400;28;19913;-65
2020/12/03 07:49:48;;;;;;;;;;;;;;;1.65;66.46;94563.25;5015544;28;19917;-71
2020/12/03 07:52:28;;;;;;;;;;;;;;;1.75;66.82;94557.22;5032840;28;20000;-71
2020/12/03 07:54:54;;;;;;;;;;;;;;;1.80;66.64;94560.63;5032940;28;20004;-72
2020/12/03 07:57:46;;;;;;;;;;;;;;;1.89;66.17;94554.84;5015435;28;20482;-71
2020/12/03 08:00:24;;;;;;;;;;;;;;;2.01;65.78;94556.16;5015049;28;19920;-69
2020/12/03 08:02:51;;;;;;;;;;;;;;;2.12;65.81;94561.38;5014201;28;19917;-71
2020/12/03 08:05:35;;;;;;;;;;;;;;;2.21;65.57;94550.09;5014920;28;19917;-73
2020/12/03 08:08:00;;;;;;;;;;;;;;;2.27;64.77;94556.91;5032872;28;19917;-73
2020/12/03 08:10:52;;;;;;;;;;;;;;;2.30;65.05;94556.38;5015021;28;19917;-73
2020/12/03 08:13:20;;;;;;;;;;;;;;;2.44;64.96;94543.47;5010911;28;19955;-72
2020/12/03 08:15:54;;;;;;;;;;;;;;;2.58;64.87;94538.44;5014726;28;19917;-73
2020/12/03 08:18:40;;;;;;;;;;;;;;;2.65;63.86;94546.81;5032465;28;19939;-71
2020/12/03 08:21:06;;;;;;;;;;;;;;;2.66;63.88;94542.34;5032334;28;20451;-68
2020/12/03 08:23:31;;;;;;;;;;;;;;;2.71;63.65;94539.69;5014168;28;20008;-68
2020/12/03 08:25:57;;;;;;;;;;;;;;;2.77;63.42;94536.00;5032447;28;19932;-69
2020/12/03 08:28:24;;;;;;;;;;;;;;;2.81;63.24;94532.56;5032272;28;20387;-71
2020/12/03 08:30:52;;;;;;;;;;;;;;;2.86;62.59;94535.16;5014531;28;19923;-71
2020/12/03 08:33:18;;;;;;;;;;;;;;;2.91;63.27;94533.56;5031460;28;20367;-70
2020/12/03 08:36:00;;;;;;;;;;;;;;;2.96;62.53;94533.53;5014454;28;19917;-71
2020/12/03 08:38:29;;;;;;;;;;;;;;;2.92;61.99;94533.31;5031975;28;19917;-71
2020/12/03 08:40:57;;;;;;;;;;;;;;;3.16;61.86;94540.53;5031648;28;20003;-71
2020/12/03 08:43:23;;;;;;;;;;;;;;;3.33;61.60;94531.25;5014198;28;19917;-71
2020/12/03 08:46:13;;;;;;;;;;;;;;;3.45;61.65;94530.91;5032275;28;19917;-71
2020/12/03 08:48:39;;;;;;;;;;;;;;;3.60;60.93;94528.16;5032015;28;19913;-71
2020/12/03 08:51:07;;;;;;;;;;;;;;;3.80;60.71;94526.44;5031788;28;19918;-70
2020/12/03 08:53:34;;;;;;;;;;;;;;;3.93;59.93;94515.25;5031999;28;20367;-70
2020/12/03 08:56:08;;;;;;;;;;;;;;;3.88;59.73;94512.66;5032131;28;19921;-70
2020/12/03 08:58:35;;;;;;;;;;;;;;;3.86;59.88;94515.59;5031979;28;19917;-70
2020/12/03 09:01:01;;;;;;;;;;;;;;;3.98;59.66;94515.22;5014471;28;20390;-70
2020/12/03 09:03:28;;;;;;;;;;;;;;;4.15;59.77;94514.81;5031822;28;19921;-71
2020/12/03 09:05:53;;;;;;;;;;;;;;;4.25;59.18;94512.06;5032115;28;19968;-71
2020/12/03 09:08:19;;;;;;;;;;;;;;;4.47;58.83;94513.44;5031516;28;19921;-70
2020/12/03 09:10:46;;;;;;;;;;;;;;;4.69;58.34;94500.50;5031917;28;19921;-69
2020/12/03 09:13:14;;;;;;;;;;;;;;;4.91;57.89;94505.25;5031790;28;20291;-70
2020/12/03 09:15:41;;;;;;;;;;;;;;;5.08;57.38;94496.88;5031960;28;20417;-71
2020/12/03 09:18:06;;;;;;;;;;;;;;;5.25;56.60;94491.88;5031998;28;20370;-71
2020/12/03 09:20:31;;;;;;;;;;;;;;;5.36;56.63;94497.78;5031718;28;19924;-70
2020/12/03 09:22:57;;;;;;;;;;;;;;;5.46;56.01;94492.34;5031481;28;19917;-70
2020/12/03 09:25:22;;;;;;;;;;;;;;;5.59;55.45;94496.13;5031893;28;20417;-71
2020/12/03 09:27:48;;;;;;;;;;;;;;;5.66;54.73;94496.53;5014252;28;20293;-70
2020/12/03 09:30:19;;;;;;;;;;;;;;;5.78;54.96;94498.72;5031696;28;19917;-70
2020/12/03 09:32:47;;;;;;;;;;;;;;;5.94;54.41;94492.16;5030074;28;20290;-71
2020/12/03 09:35:12;;;;;;;;;;;;;;;5.99;54.13;94495.50;5031708;28;19956;-70
2020/12/03 09:37:37;;;;;;;;;;;;;;;6.12;53.70;94498.44;5031830;28;19959;-71
2020/12/03 09:40:06;;;;;;;;;;;;;;;6.11;53.69;94489.75;5031621;28;20013;-71
2020/12/03 09:42:36;;;;;;;;;;;;;;;6.19;54.03;94480.34;5031456;28;19933;-70
2020/12/03 09:45:07;;;;;;;;;;;;;;;6.28;53.83;94470.69;5031776;28;19923;-71
2020/12/03 09:47:33;;;;;;;;;;;;;;;6.34;53.72;94466.88;5031757;28;19918;-71
2020/12/03 09:49:58;;;;;;;;;;;;;;;6.37;53.27;94468.16;5014124;28;19917;-70
2020/12/03 09:52:24;;;;;;;;;;;;;;;6.41;53.36;94463.84;5014030;28;19921;-69
2020/12/03 09:54:50;;;;;;;;;;;;;;;6.47;53.22;94462.69;5035055;28;19925;-70
2020/12/03 09:57:15;;;;;;;;;;;;;;;6.52;53.05;94467.88;5035131;28;19917;-70
2020/12/03 09:59:40;;;;;;;;;;;;;;;6.58;52.20;94456.09;5035010;28;19917;-71
2020/12/03 10:02:24;;;;;;;;;;;;;;;6.62;52.16;94459.72;5017038;28;19917;-71
2020/12/03 10:05:08;;;;;;;;;;;;;;;6.65;52.48;94447.78;5035187;28;19925;-72
2020/12/03 10:07:52;;;;;;;;;;;;;;;6.76;52.52;94442.00;5035171;28;19925;-71
2020/12/03 10:10:35;;;;;;;;;;;;;;;6.76;51.92;94430.66;5034849;28;19917;-71
2020/12/03 10:13:07;;;;;;;;;;;;;;;6.77;51.66;94424.28;5017030;28;19924;-70
2020/12/03 10:15:57;;;;;;;;;;;;;;;6.78;52.19;94417.91;5035059;28;19917;-71
2020/12/03 10:18:34;;;;;;;;;;;;;;;6.83;52.02;94417.03;5034844;28;20359;-71
2020/12/03 10:20:59;;;;;;;;;;;;;;;6.66;51.60;94409.72;5016914;28;19918;-71
2020/12/03 10:23:36;;;;;;;;;;;;;;;6.72;50.97;94411.19;5034343;28;19928;-71
2020/12/03 10:26:20;;;;;;;;;;;;;;;6.80;51.63;94414.97;5033542;28;19943;-71
2020/12/03 10:28:51;;;;;;;;;;;;;;;6.87;51.80;94402.13;5034460;28;19925;-71
2020/12/03 10:31:17;;;;;;;;;;;;;;;6.96;50.90;94395.03;5034128;28;19959;-70
2020/12/03 10:33:46;;;;;;;;;;;;;;;7.00;50.81;94393.38;5034019;28;19917;-71
2020/12/03 10:36:25;;;;;;;;;;;;;;;6.91;50.86;94379.28;5034623;28;19917;-72
2020/12/03 10:38:51;;;;;;;;;;;;;;;6.80;49.94;94381.38;5016592;28;19921;-72
2020/12/03 10:41:16;;;;;;;;;;;;;;;6.44;50.83;94360.22;5034215;28;20394;-73
2020/12/03 10:43:44;;;;;;;;;;;;;;;6.40;50.63;94351.34;5016431;28;19943;-71
2020/12/03 10:46:13;;;;;;;;;;;;;;;6.00;52.14;94348.44;5034277;28;19943;-71
2020/12/03 10:48:42;;;;;;;;;;;;;;;6.05;52.78;94352.84;5033979;28;20289;-72
2020/12/03 10:51:08;;;;;;;;;;;;;;;5.88;52.37;94345.47;5034069;28;19979;-70
2020/12/03 10:53:33;;;;;;;;;;;;;;;5.76;52.50;94338.03;5034060;28;19965;-70
2020/12/03 10:56:03;;;;;;;;;;;;;;;5.76;53.04;94332.75;5033879;28;19922;-70
2020/12/03 10:58:32;;;;;;;;;;;;;;;5.73;53.99;94330.69;5033898;28;20374;-71
2020/12/03 11:01:01;;;;;;;;;;;;;;;5.47;54.32;94320.59;5016582;28;20359;-70
2020/12/03 11:03:28;;;;;;;;;;;;;;;5.40;54.05;94324.72;5044395;23;19935;-70
2020/12/03 11:05:55;;;;;;;;;;;;;;;5.28;54.37;94317.28;5035009;28;19917;-69
2020/12/03 11:08:22;;;;;;;;;;;;;;;5.16;55.29;94307.19;5053979;28;20370;-69
2020/12/03 11:10:51;;;;;;;;;;;;;;;5.07;55.33;94306.31;5031511;28;19936;-69
2020/12/03 11:13:19;;;;;;;;;;;;;;;4.99;55.56;94301.69;5034124;28;20016;-70
2020/12/03 11:15:45;;;;;;;;;;;;;;;4.93;56.09;94295.72;5033948;28;19917;-71
2020/12/03 11:18:11;;;;;;;;;;;;;;;4.83;56.18;94287.19;5016134;28;20012;-71
2020/12/03 11:20:38;;;;;;;;;;;;;;;4.74;56.43;94286.28;5015646;28;20004;-69
2020/12/03 11:23:22;;;;;;;;;;;;;;;4.69;56.31;94279.22;5015632;28;19917;-70
2020/12/03 11:25:50;;;;;;;;;;;;;;;4.61;56.79;94275.41;5033529;28;19924;-70
2020/12/03 11:28:38;;;;;;;;;;;;;;;4.61;57.02;94266.72;5033392;28;19917;-71
2020/12/03 11:31:07;;;;;;;;;;;;;;;4.66;57.08;94264.03;5033555;28;20461;-73
2020/12/03 11:33:34;;;;;;;;;;;;;;;4.68;57.14;94262.66;5032742;28;19921;-70
2020/12/03 11:36:07;;;;;;;;;;;;;;;4.69;56.73;94263.44;5033402;28;20417;-70
2020/12/03 11:38:32;;;;;;;;;;;;;;;4.72;56.89;94254.19;5033243;28;20383;-69
2020/12/03 11:41:00;;;;;;;;;;;;;;;4.67;56.57;94260.31;5033283;28;19923;-70
2020/12/03 11:48:46;;;;;;;;;;;;;;;4.62;56.43;94234.06;5033253;28;19917;-69
2020/12/03 11:51:31;;;;;;;;;;;;;;;4.72;55.95;94235.75;5033324;28;19924;-69
2020/12/03 11:54:03;;;;;;;;;;;;;;;4.82;55.79;94239.00;5033298;28;19928;-69
2020/12/03 11:56:29;;;;;;;;;;;;;;;4.97;55.59;94245.84;5015517;28;19939;-70
2020/12/03 11:59:11;;;;;;;;;;;;;;;5.17;55.59;94234.94;5032842;28;20442;-70
2020/12/03 12:01:36;;;;;;;;;;;;;;;5.16;54.71;94232.59;5032785;28;20007;-69
2020/12/03 12:04:01;;;;;;;;;;;;;;;5.28;54.72;94232.13;5033037;28;20426;-70
2020/12/03 12:06:31;;;;;;;;;;;;;;;5.50;54.58;94231.44;5032942;28;19964;-70
2020/12/03 12:09:15;;;;;;;;;;;;;;;5.63;53.77;94231.44;5032517;28;19917;-71
2020/12/03 12:11:44;;;;;;;;;;;;;;;5.58;52.34;94220.19;5032372;28;20429;-69
2020/12/03 12:14:09;;;;;;;;;;;;;;;5.48;52.95;94208.00;5032759;28;19960;-69
2020/12/03 12:16:34;;;;;;;;;;;;;;;5.39;52.95;94207.91;5032364;28;19956;-70
2020/12/03 12:19:01;;;;;;;;;;;;;;;5.33;53.03;94213.56;5032465;28;19964;-70
2020/12/03 12:21:28;;;;;;;;;;;;;;;5.30;52.15;94211.50;5032495;28;19956;-72
2020/12/03 12:23:53;;;;;;;;;;;;;;;4.88;52.15;94210.69;5031502;28;20334;-70
2020/12/03 12:26:18;;;;;;;;;;;;;;;4.52;53.25;94208.66;5014879;28;19917;-70
2020/12/03 12:28:43;;;;;;;;;;;;;;;4.56;53.88;94212.28;5032365;28;19970;-70
2020/12/03 12:31:09;;;;;;;;;;;;;;;4.62;54.42;94207.72;5032469;28;20000;-71
2020/12/03 12:33:34;;;;;;;;;;;;;;;4.58;54.55;94210.13;5032478;28;19917;-70
2020/12/03 12:35:59;;;;;;;;;;;;;;;4.55;54.77;94199.38;5032602;28;19917;-71
2020/12/03 12:38:24;;;;;;;;;;;;;;;4.54;54.48;94203.88;5014753;28;19917;-70
2020/12/03 12:40:49;;;;;;;;;;;;;;;4.07;54.54;94205.66;5032455;28;20374;-69
2020/12/03 12:43:15;;;;;;;;;;;;;;;4.25;54.88;94208.53;5032309;28;20046;-70
2020/12/03 12:45:40;;;;;;;;;;;;;;;4.31;55.18;94210.03;5032655;28;19971;-71
2020/12/03 12:48:05;;;;;;;;;;;;;;;4.37;54.90;94208.91;5032574;28;20378;-70
2020/12/03 12:50:31;;;;;;;;;;;;;;;4.42;54.82;94201.69;5032149;28;20453;-70
2020/12/03 12:52:56;;;;;;;;;;;;;;;4.44;55.28;94194.28;5014412;28;19924;-68
2020/12/03 12:55:21;;;;;;;;;;;;;;;4.43;55.62;94195.34;5032496;28;19924;-71
2020/12/03 12:57:46;;;;;;;;;;;;;;;4.40;55.98;94195.94;5032485;28;20002;-70
2020/12/03 13:00:12;;;;;;;;;;;;;;;4.33;55.65;94184.22;5032000;28;19924;-71
2020/12/03 13:02:37;;;;;;;;;;;;;;;4.27;55.35;94188.78;5014254;28;19925;-68
2020/12/03 13:05:03;;;;;;;;;;;;;;;4.27;55.09;94186.13;5032460;28;19921;-69
2020/12/03 13:07:28;;;;;;;;;;;;;;;4.23;55.28;94181.72;5032314;28;19917;-71
2020/12/03 13:09:53;;;;;;;;;;;;;;;4.17;55.12;94184.44;5032167;28;19931;-70
2020/12/03 13:12:18;;;;;;;;;;;;;;;4.17;55.17;94186.28;5032103;28;19917;-70